All Stations Radar Satellite Rainfall Station Map Enhanced Site
Observations: Wind Gusts Humidity Temperature    
Forecasts: Wind Gusts Humidity Temperature    

Mt. Soledad (578) Station Data (Station Map)

Red Flag Warning: No
Fire Weather Zone: 243
SDGE Region: Beach Cities
Lat/Lon: 32.814/-117.241

Observations

Time (PDT)Wind Spd/GustTempRHFuel Moisture
10/24 4:50amN 2 G 368°63%11.25%
10/24 4:40amN 2 G 366°68%11.24%
10/24 4:30amNNW 2 G 365°72%11.17%
10/24 4:20amNNW 2 G 365°74%11.09%
10/24 4:10amNW 1 G 265°75%10.98%
10/24 4:00amNNW 0 G 165°73%10.9%
10/24 3:50amN 1 G 365°76%10.78%
10/24 3:40amN 1 G 266°77%10.64%
10/24 3:30amNNE 2 G 366°77%10.51%
10/24 3:20amNNW 2 G 366°68%10.35%
10/24 3:10amNNW 1 G 266°65%10.29%
10/24 3:00amNNW 2 G 366°64%10.3%
10/24 2:50amNNW 2 G 366°66%10.26%
10/24 2:40amNW 2 G 366°64%10.2%
10/24 2:30amNNW 2 G 367°60%10.15%
10/24 2:20amNNW 2 G 367°59%10.17%
10/24 2:10amNNW 2 G 367°62%10.14%
10/24 2:00amNNW 3 G 467°63%10.1%
10/24 1:50amNNW 2 G 367°64%10.04%
10/24 1:40amNNW 3 G 367°65%9.97%
10/24 1:30amNW 1 G 368°58%9.87%
10/24 1:20amWSW 1 G 269°52%9.79%
10/24 1:10amWNW 3 G 370°51%9.85%
10/24 1:00amW 2 G 370°51%9.86%
10/24 12:50amWNW 1 G 370°45%9.8%
10/24 12:40amNNW 3 G 469°47%9.84%
10/24 12:30amNNW 2 G 369°48%9.85%
10/24 12:20amW 1 G 269°50%9.85%
10/24 12:10amWSW 0 G 169°53%9.88%
10/24 12:00amNW 1 G 270°52%9.89%
10/23 11:50pmNW 2 G 369°55%9.9%
10/23 11:40pmNW 2 G 368°56%9.89%
10/23 11:30pmNNW 2 G 367°59%9.87%
10/23 11:20pmNNW 2 G 368°64%9.9%
10/23 11:10pmNNW 2 G 368°69%9.88%
10/23 11:00pmNW 1 G 268°70%9.8%
10/23 10:50pmWSW 1 G 270°68%9.62%
10/23 10:40pmSW 1 G 270°69%9.62%
10/23 10:30pmWSW 1 G 269°64%9.5%
10/23 10:20pmWNW 1 G 269°62%9.37%
10/23 10:10pmNNW 2 G 469°62%9.37%
10/23 10:00pmNNW 2 G 368°63%9.32%
10/23 9:50pmNNW 3 G 468°66%9.24%
10/23 9:40pmNNW 3 G 368°67%9.12%
10/23 9:30pmNW 2 G 368°58%8.91%
10/23 9:20pmWNW 2 G 369°53%8.9%
10/23 9:10pmWNW 2 G 370°50%8.87%
10/23 9:00pmNW 1 G 270°47%8.8%
10/23 8:50pmW 3 G 471°46%8.83%
10/23 8:40pmW 3 G 471°49%8.83%
10/23 8:30pmW 0 G 171°45%8.73%
10/23 8:20pmW 1 G 272°39%8.7%
10/23 8:10pmW 1 G 273°36%8.74%
10/23 8:00pmW 0 G 273°34%8.73%
10/23 7:50pmNNW 2 G 374°32%8.72%
10/23 7:40pmNNW 3 G 473°33%8.78%
10/23 7:30pmN 4 G 573°33%8.71%
10/23 7:20pmN 4 G 572°35%8.73%
10/23 7:10pmN 3 G 473°34%8.78%
10/23 7:00pmNNW 3 G 473°35%8.77%
10/23 6:50pmNW 2 G 373°36%8.76%
10/23 6:40pmNW 3 G 474°39%8.8%
10/23 6:30pmNW 2 G 473°42%8.78%
10/23 6:20pmNNW 1 G 274°38%8.79%
10/23 6:10pmENE 1 G 274°38%8.73%
10/23 6:00pmE 1 G 375°35%8.78%
10/23 5:50pmNNE 2 G 376°34%8.8%
10/23 5:40pmNE 1 G 477°34%8.86%
10/23 5:30pmNE 2 G 377°35%8.93%
10/23 5:20pmNE 2 G 377°35%9.06%
10/23 5:10pmNNE 4 G 677°35%9.22%
10/23 5:00pmNE 4 G 577°37%9.33%
10/23 4:50pmNE 3 G 578°38%9.42%
10/23 4:40pmENE 3 G 578°40%9.52%
10/23 4:30pmNNE 1 G 378°43%9.6%
10/23 4:20pmNE 3 G 577°43%9.62%
10/23 4:10pmNW 3 G 678°34%9.65%
10/23 4:00pmNNW 4 G 778°35%9.71%
10/23 3:50pmNNW 4 G 777°37%9.8%
10/23 3:40pmNW 4 G 877°38%9.84%
10/23 3:30pmWNW 4 G 776°40%9.9%
10/23 3:20pmWNW 4 G 777°40%9.98%
10/23 3:10pmWNW 4 G 677°40%10.1%
10/23 3:00pmW 4 G 777°42%10.17%
10/23 2:50pmW 4 G 877°40%10.28%
10/23 2:40pmW 5 G 877°41%10.35%
10/23 2:30pmW 5 G 876°45%10.45%
10/23 2:20pmNW 6 G 976°49%10.54%
10/23 2:10pmNW 5 G 977°51%10.68%
10/23 2:00pmNW 5 G 877°52%10.73%
10/23 1:50pmWNW 5 G 976°54%10.76%
10/23 1:40pmWNW 5 G 877°54%10.8%
10/23 1:30pmWNW 5 G 977°51%10.85%
10/23 1:20pmWNW 4 G 779°45%10.88%
10/23 1:10pmWNW 5 G 878°42%10.94%
10/23 1:00pmNW 5 G 879°38%11.05%
10/23 12:50pmWNW 4 G 879°36%11.17%
10/23 12:40pmNW 5 G 779°35%11.33%
10/23 12:30pmNW 5 G 879°34%11.53%
10/23 12:20pmWNW 5 G 878°40%11.78%
10/23 12:10pmWNW 4 G 778°43%12.11%
10/23 12:00pmWNW 4 G 777°45%12.39%
10/23 11:50amNW 4 G 777°51%12.85%
10/23 11:40amW 3 G 776°53%13.22%
10/23 11:30amSW 3 G 775°65%13.64%
10/23 11:20amSW 4 G 774°66%13.97%
10/23 11:10amSW 4 G 773°68%14.21%
10/23 11:00amSW 3 G 771°75%14.47%
10/23 10:50amSW 4 G 671°72%14.63%
10/23 10:40amSW 4 G 670°76%14.9%
10/23 10:30amSSW 3 G 669°81%15.17%
10/23 10:20amSW 4 G 669°83%15.37%
10/23 10:10amSW 3 G 568°82%15.61%
10/23 10:00amSW 3 G 467°84%15.86%
10/23 9:50amSW 4 G 567°87%16.12%
10/23 9:40amSW 3 G 567°86%16.39%
10/23 9:30amSW 2 G 467°83%16.65%
10/23 9:20amSW 2 G 369°79%16.95%
10/23 9:10amE 1 G 369°80%17.42%
10/23 9:00amESE 1 G 268°82%17.97%
10/23 8:50amESE 2 G 368°81%18.55%
10/23 8:40amSSE 1 G 268°82%19.18%
10/23 8:30amSE 1 G 167°82%19.83%
10/23 8:20amSSE 1 G 166°83%20.52%
10/23 8:10amSE 1 G 267°81%21.21%
10/23 8:00amE 0 G 168°78%21.96%
10/23 7:50amN 0 G 067°80%22.45%
10/23 7:40amNNW 0 G 266°82%22.99%
10/23 7:30amN 1 G 265°84%23.54%
10/23 7:20amN 2 G 264°87%23.89%
10/23 7:10amN 1 G 262°90%23.91%
10/23 7:00amNNW 2 G 362°92%23.83%
10/23 6:50amNNW 2 G 362°93%23.72%
10/23 6:40amNNW 1 G 262°93%23.46%
10/23 6:30amENE 0 G 062°92%23.22%
10/23 6:20amNE 0 G 162°91%22.98%
10/23 6:10amNNW 0 G 162°91%22.81%
10/23 6:00amN 1 G 263°92%22.64%
10/23 5:50amN 2 G 263°93%22.49%
10/23 5:40amNNW 3 G 462°92%22.21%
10/23 5:30amN 2 G 361°91%21.99%
10/23 5:20amNNE 1 G 262°91%21.79%
10/23 5:10amNNW 2 G 363°91%21.62%
10/23 5:00amNW 2 G 363°90%21.53%
10/23 4:50amNW 1 G 263°89%21.31%
10/23 4:40amNW 1 G 264°88%21.16%
10/23 4:30amWNW 1 G 264°87%20.89%
10/23 4:20amWNW 2 G 264°87%20.76%
10/23 4:10amWNW 2 G 363°89%20.75%
10/23 4:00amNW 2 G 363°89%20.63%
10/23 3:50amNNW 1 G 263°90%20.5%
10/23 3:40amNW 1 G 263°91%20.33%
10/23 3:30amNNW 2 G 363°92%20.27%
10/23 3:20amNNW 2 G 363°93%20.18%
10/23 3:10amNNW 3 G 363°93%19.94%
10/23 3:00amN 2 G 463°93%19.75%
10/23 2:50amN 2 G 563°93%19.56%
10/23 2:40amN 3 G 563°94%19.29%
10/23 2:30amWSW 1 G 363°94%19.04%
10/23 2:20amW 2 G 363°94%18.8%
10/23 2:10amSW 1 G 363°94%18.52%
10/23 2:00amWNW 1 G 262°94%18.23%
10/23 1:50amWNW 1 G 263°94%18.03%
10/23 1:40amNNW 2 G 362°94%17.84%
10/23 1:30amN 2 G 363°94%17.49%
10/23 1:20amNNW 2 G 363°95%17.32%
10/23 1:10amNNW 2 G 363°95%17.1%
10/23 1:00amNNW 3 G 462°94%16.87%
10/23 12:50amN 2 G 363°93%16.55%
10/23 12:40amN 1 G 363°93%16.28%
10/23 12:30amN 0 G 163°93%16.11%
10/23 12:20amENE 0 G 064°93%15.89%
10/23 12:10amW 0 G 164°93%15.73%
10/23 12:00amWNW 0 G 164°93%15.62%
10/22 11:50pmNNW 3 G 465°93%15.52%
10/22 11:40pmNNW 2 G 465°92%15.26%
10/22 11:30pmNNW 1 G 365°92%15.01%
10/22 11:20pmNW 1 G 265°92%14.87%
10/22 11:10pmNW 1 G 265°92%14.68%
10/22 11:00pmNNW 0 G 064°91%14.46%
10/22 10:50pmNW 1 G 265°91%14.33%
10/22 10:40pmNNW 1 G 264°91%14.1%
10/22 10:30pmNW 0 G 065°90%13.96%
10/22 10:20pmNW 0 G 265°90%13.79%
10/22 10:10pmN 0 G 065°90%13.61%
10/22 10:00pmSSE 0 G 265°89%13.4%
10/22 9:50pmNNE 1 G 466°89%13.25%
10/22 9:40pmNNW 3 G 666°89%13.17%
10/22 9:30pmNW 2 G 566°88%12.97%
10/22 9:20pmNW 3 G 666°87%12.83%
10/22 9:10pmNNW 2 G 366°85%12.5%
10/22 9:00pmNNE 3 G 566°85%12.32%
10/22 8:50pmNNW 2 G 366°84%12.18%
10/22 8:40pmNW 2 G 467°82%12.04%
10/22 8:30pmNW 2 G 466°74%11.81%
10/22 8:20pmNW 1 G 367°71%11.63%
10/22 8:10pmNNW 2 G 367°67%11.57%
10/22 8:00pmNW 2 G 468°64%11.62%
10/22 7:50pmNW 2 G 468°60%11.64%
10/22 7:40pmWSW 2 G 367°62%11.6%
10/22 7:30pmSW 2 G 367°67%11.65%
10/22 7:20pmSSW 0 G 267°71%11.65%
10/22 7:10pmNW 0 G 267°73%11.55%
10/22 7:00pmNW 2 G 368°76%11.57%
10/22 6:50pmNW 1 G 268°76%11.52%
10/22 6:40pmNW 1 G 268°76%11.46%
10/22 6:30pmNNW 1 G 368°76%11.34%
10/22 6:20pmNNW 2 G 369°76%11.25%
10/22 6:10pmWNW 2 G 369°75%11.21%
10/22 6:00pmNW 3 G 570°74%11.14%